Terminal Aerodrome Forecast
Issued by NWS

Home | Current Version | Previous Version | Text Only | Print | Product List | Glossary On
Versions: 1 2 3 4 5 6 7 8 9 10 11 12 13 14
235
FTUS43 KILX 072007 AAA
TAFDEC
TAF AMD
KDEC 072007Z 0720/0818 24018G27KT P6SM BKN120
     FM072300 26013G20KT P6SM SCT040 BKN100
     FM080300 27010KT P6SM SCT025 BKN050
     FM081000 28012KT P6SM VCSH OVC020
     FM081500 29015G23KT 4SM -SN BR OVC015=

USA.gov is the U.S. government's official web portal to all federal, state and local government web resources and services.